Logo AVAMET
Benvolgut visitant, si us plau, ingressa Recuperar contrasenya
AVAMET paisatges

Inforatge Borriana Santa Bàrbara

Dades diàries. Acumulats / Últims 30 dies disponibles

Data Temperatura (°C) Humitat rel. (%) Pressió rel. (hPa) Vent (km/h) Precipitació
Mínima Mitjana Màxima Amplitud
tèrmica
Mínima Mitjana Màxima Mínima Mitjana Màxima Predom. Mitjana Ràfega
màxima
Total
(mm)
Índex-n
Mínima Mitjana Màxima Mínima Mitjana Màxima n
0 a 1
P0 max
mm 5'
Dades mensuals acumulades fins l'últim dia disponible
09/2020 12,2 18,2 20,9 22,7 23,4 27,3 30,7 18,5 20 74 96 1.009 1.019 1.028   5,6 46,7 14,6
Dades anuals acumulades fins l'últim dia disponible
2020 1,4 14,3 24,3 18,6 10,8 22,7 32,5 31,1 20 79 98 998 1.020 1.037   6,3 80,5 462,4
Últims 30 dies disponibles
28-09-2020 12,8     18,5     23,7 10,9 35 57 76 1.016 1.018 1.021 WNW 4,3 24,1 0,0
27-09-2020 16,1     20,8     23,4 7,3 20 48 70 1.009 1.013 1.017 SE 6,6 37,0 0,0
26-09-2020 12,2     19,2     24,8 12,6 37 55 71 1.011 1.017 1.022 SE 5,1 24,1 0,0
25-09-2020 17,4     22,0     25,7 8,3 26 44 69 1.014 1.017 1.022 WNW 12,4 41,8 0,0
24-09-2020 19,4     23,8     29,4 10,0 46 67 85 1.012 1.014 1.015 SSW 8,7 35,4 0,0
23-09-2020 17,8     23,1     29,2 11,4 53 75 89 1.011 1.014 1.015 WNW 4,5 24,1 0,0
22-09-2020 18,2     22,1     26,9 8,7 63 81 93 1.014 1.016 1.018 WNW 5,6 30,6 0,0
21-09-2020 19,1     22,9     27,3 8,2 60 74 88 1.017 1.018 1.019 WNW 6,0 25,7 0,0
20-09-2020 18,1     23,4     28,2 10,1 61 76 85 1.016 1.017 1.018 E 6,3 25,7 0,0
19-09-2020 17,9     23,9     30,7 12,8 58 89 96 1.016 1.017 1.018 SW 8,7 45,1 0,2
18-09-2020 19,7     22,5     25,4 5,7 73 86 96 1.016 1.018 1.019 WNW 4,0 35,4 12,0
17-09-2020 19,9     23,7     28,9 9,0 63 83 94 1.017 1.018 1.020 W 2,9 22,5 0,0
16-09-2020 19,7     23,9     28,3 8,6 70 84 95 1.019 1.021 1.023 W 3,4 19,3 0,0
15-09-2020 20,3     24,3     29,1 8,8 64 82 94 1.021 1.023 1.025 SE 2,4 24,1 0,6
14-09-2020 19,6     23,6     27,3 7,7 63 77 91 1.023 1.025 1.026 W 7,2 27,4 0,0
13-09-2020 20,3     24,7     30,3 10,0 49 69 86 1.023 1.024 1.026 W 4,8 20,9 0,0
12-09-2020 19,0     23,6     29,5 10,5 57 78 89 1.018 1.020 1.024 W 5,1 24,1 0,0
11-09-2020 18,1     23,1     27,8 9,7 52 76 92 1.016 1.017 1.019 ENE 4,5 22,5 0,0
10-09-2020 17,8     22,6     27,2 9,4 60 79 95 1.018 1.020 1.023 W 3,1 19,3 0,0
09-09-2020 18,0     21,2     25,2 7,2 63 78 92 1.021 1.023 1.025 W 7,2 29,0 0,6
08-09-2020 16,4     22,1     26,7 10,3 41 65 86 1.023 1.024 1.026 W 8,0 46,7 0,0
07-09-2020 20,9     22,4     23,9 3,0 49 70 89 1.017 1.020 1.024 NE 11,6 46,7 0,0
06-09-2020 19,0     23,9     28,4 9,4 67 80 93 1.017 1.019 1.021 W 3,1 20,9 0,0
05-09-2020 18,3     23,5     28,1 9,8 65 79 90 1.020 1.022 1.025 W 2,9 17,7 0,0
04-09-2020 18,7     23,7     28,3 9,6 68 78 87 1.024 1.026 1.028 W 3,7 17,7 0,0
03-09-2020 18,9     23,7     28,2 9,3 66 77 90 1.021 1.024 1.026 W 3,4 19,3 0,0
02-09-2020 16,9     22,2     25,9 9,0 56 77 92 1.016 1.018 1.022 W 7,2 29,0 0,0
01-09-2020 17,8     22,3     27,1 9,3 60 73 90 1.014 1.016 1.019 W 3,9 22,5 1,2 0,20
31-08-2020 15,7     21,4     25,8 10,1 38 60 78 1.019 1.020 1.022 W 4,8 25,7 0,0
30-08-2020 15,5     20,7     25,3 9,8 38 61 88 1.011 1.015 1.020 W 4,8 24,1 0,0
Últims 13 mesos disponibles
08/2020 15,5 21,3 24,3 25,6 25,3 29,4 31,1 15,6 60 79 90 1.007 1.016 1.021 W 5,0 37,0 10,0
07/2020 18,9 21,0 23,8 25,3 26,8 28,9 32,5 13,6 58 80 87 1.014 1.019 1.023 ENE 5,8 43,5 2,6
06/2020 13,1 17,5 20,9 21,9 21,2 25,7 29,8 16,7 45 79 89 1.006 1.017 1.023 ENE 5,8 46,7 24,2
05/2020 11,6 15,4 18,8 19,9 17,4 24,0 30,7 19,1 57 78 89 1.007 1.019 1.030 ENE 6,5 49,9 22,0
04/2020 8,2 11,8 15,4 15,2 14,8 18,8 27,8 19,6 56 85 96 1.007 1.018 1.028 W 6,4 53,1 177,2
03/2020 4,5 9,3 13,1 13,3 11,7 17,1 25,4 20,9 47 77 95 1.007 1.019 1.029 W 9,3 72,4 136,2
02/2020 5,3 8,5 11,9 13,1 14,0 18,0 25,3 20,0 57 79 91 1.014 1.027 1.034 W 4,1 48,3 0,4
01/2020 1,4 6,2 12,0 10,2 10,8 15,0 20,8 19,4 65 81 94 1.019 1.027 1.034 W 7,9 80,5 75,2
12/2019 3,8 9,1 15,8 13,0 12,2 17,1 25,4 21,6 50 77 94 1.002 1.020 1.036 W 7,6 69,2 105,2
11/2019 5,3 10,4 17,6 14,8 14,9 19,7 27,6 22,3 43 61 85 998 1.011 1.019 W 8,4 64,4 4,0
10/2019 9,8 15,0 19,3 19,3 16,0 23,8 27,8 18,0 54 77 94 1.008 1.018 1.024 W 5,3 45,1 21,2
09/2019 14,7 19,1 21,8 23,0 21,1 26,6 30,7 16,0 55 78 95 1.012 1.020 1.027 SSO 7,4 61,1 65,6
08/2019 18,1 21,2 24,7 25,4 24,7 29,1 31,5 13,4 60 80 93 1.013 1.018 1.022 SSE 6,0 63,0 18,8
Tots els anys disponibles
2019 0,7 12,8 24,7 17,3 11,8 21,7 33,3 32,6 29 73 95 994 1.019 1.036 S 7,4 77,8 300,8
Temperatura (°C)
Humitat relativa (%)
Velocitat del vent i ràfega màxima (km/h)
Direcció del vent (°)
Pressió (hPa)
Precipitació (mm)
Nota sobre les dades: s'avisa a l'usuari de la provisionalitat i no oficialitat d'aquestes dades
Logo AVAMET blanc
Web allotjada a Sollutia
Llicència de Creative CommonsLa web d'AVAMET i els seus continguts estan subjectes a una llicència de
Reconeixement - No Comercial - Compartir igual
Últimes estacions: Monteagudo del Castillo - El Portero (Limítrofe-Terol/Soci), Llocnou d'en Fenollet - El Molló (Soci), Castelló de la Plana - Grup Sant Agustí (Soci), Llíria - Urb. San Gerardo (Soci), Xàtiva - Ausiàs March (Soci), Gandia - Parpalló/Borrell (AVAMET), Olocau del Rei - La Magdalena (Electra/Soci), Ademuz - IES Ademuz (Soci), La Jana (Ajuntament Soci), - - -